Time;durP1;ratioP1;P1;durP2;ratioP2;P2;SDS_P1;SDS_P2;PMS_P1;PMS_P2;Temp;Humidity;BMP_temperature;BMP_pressure;BME280_temperature;BME280_humidity;BME280_pressure;Samples;Min_cycle;Max_cycle;Signal;HPM_P1;HPM_P2
2022/09/15 00:02:19;;;;;;;16.90;7.33;;;;;;;14.33;98.79;98487.16;4204605;28;20327;-70
2022/09/15 00:04:46;;;;;;;14.13;6.50;;;;;;;14.26;99.36;98486.41;4196753;28;20377;-71
2022/09/15 00:07:12;;;;;;;14.57;6.67;;;;;;;14.17;100.00;98481.53;4204883;28;20251;-73
2022/09/15 00:09:39;;;;;;;12.43;6.57;;;;;;;14.20;100.00;98486.44;4205275;28;20598;-75
2022/09/15 00:12:06;;;;;;;13.00;6.40;;;;;;;14.23;100.00;98481.47;4198462;28;20262;-72
2022/09/15 00:14:32;;;;;;;12.70;6.97;;;;;;;14.32;99.89;98484.69;4200403;28;21391;-71
2022/09/15 00:16:59;;;;;;;17.37;7.50;;;;;;;14.40;98.90;98478.25;4207542;28;20232;-70
2022/09/15 00:19:25;;;;;;;17.43;6.63;;;;;;;14.40;98.77;98478.25;4209516;28;20604;-70
2022/09/15 00:21:52;;;;;;;16.37;6.17;;;;;;;14.34;99.26;98469.25;4199096;28;20312;-70
2022/09/15 00:24:18;;;;;;;19.30;6.67;;;;;;;14.21;99.92;98467.50;4202326;28;20232;-71
2022/09/15 00:26:45;;;;;;;15.57;6.47;;;;;;;14.25;100.00;98483.94;4205928;28;20245;-70
2022/09/15 00:29:11;;;;;;;15.83;6.80;;;;;;;14.26;100.00;98478.38;4193712;28;20732;-70
2022/09/15 00:31:38;;;;;;;17.17;7.00;;;;;;;14.09;100.00;98480.75;4187753;28;20240;-72
2022/09/15 00:34:05;;;;;;;16.13;7.03;;;;;;;14.06;100.00;98483.03;4224672;28;20870;-71
2022/09/15 00:36:33;;;;;;;17.37;6.73;;;;;;;14.06;100.00;98493.72;4197797;28;20312;-71
2022/09/15 00:38:59;;;;;;;15.43;6.90;;;;;;;14.04;100.00;98493.13;4198005;28;21756;-70
2022/09/15 00:41:26;;;;;;;18.00;6.90;;;;;;;14.02;100.00;98492.50;4204497;28;20281;-70
2022/09/15 00:44:05;;;;;;;12.93;6.77;;;;;;;14.04;100.00;98496.59;4209042;28;21703;-70
2022/09/15 00:46:38;;;;;;;20.17;6.93;;;;;;;13.94;100.00;98499.75;4201484;28;20363;-71
2022/09/15 00:49:10;;;;;;;15.30;6.60;;;;;;;14.00;100.00;98499.94;4196151;28;20402;-74
2022/09/15 00:51:53;;;;;;;14.50;6.40;;;;;;;13.99;100.00;98498.31;4202963;28;20282;-71
2022/09/15 00:54:27;;;;;;;15.23;6.83;;;;;;;14.07;100.00;98496.19;4199162;28;20696;-69
2022/09/15 00:56:55;;;;;;;14.43;6.80;;;;;;;14.02;100.00;98493.31;4212155;28;20233;-73
2022/09/15 00:59:24;;;;;;;15.73;6.93;;;;;;;14.09;100.00;98482.59;4206559;28;22256;-72
2022/09/15 01:02:10;;;;;;;13.57;6.97;;;;;;;14.15;100.00;98473.72;4202818;28;20782;-72
2022/09/15 01:04:36;;;;;;;19.47;6.47;;;;;;;14.18;100.00;98475.94;4215283;28;20323;-75
2022/09/15 01:07:04;;;;;;;21.63;7.70;;;;;;;14.28;100.00;98473.63;4202425;28;20240;-71
2022/09/15 01:09:38;;;;;;;16.93;7.43;;;;;;;14.11;100.00;98465.28;4202969;28;20245;-73
2022/09/15 01:12:05;;;;;;;16.77;7.43;;;;;;;14.12;100.00;98466.13;4197745;28;20250;-68
2022/09/15 01:14:31;;;;;;;15.47;7.63;;;;;;;14.05;100.00;98468.84;4205357;28;20241;-68
2022/09/15 01:17:05;;;;;;;15.00;7.77;;;;;;;14.01;100.00;98464.16;4198040;28;21770;-70
2022/09/15 01:20:06;;;;;;;16.53;7.83;;;;;;;14.05;100.00;98457.34;4195547;28;20288;-71
2022/09/15 01:22:54;;;;;;;16.40;8.00;;;;;;;14.00;100.00;98454.47;4202420;28;20333;-72
2022/09/15 01:25:34;;;;;;;18.73;7.53;;;;;;;14.04;100.00;98453.00;4213932;28;20229;-70
2022/09/15 01:28:37;;;;;;;15.17;7.17;;;;;;;14.01;100.00;98456.13;4191101;28;20392;-69
2022/09/15 01:33:02;;;;;;;15.80;7.53;;;;;;;13.93;100.00;98450.00;4208719;28;20336;-68
2022/09/15 01:34:23;;;;;;;15.40;7.33;;;;;;;13.94;100.00;98440.94;4211627;28;21138;-72
2022/09/15 01:36:54;;;;;;;13.07;7.47;;;;;;;13.89;100.00;98437.28;4201965;28;20244;-70
2022/09/15 01:39:25;;;;;;;17.00;8.03;;;;;;;13.91;100.00;98441.38;4209883;28;21710;-71
2022/09/15 01:41:56;;;;;;;20.20;8.70;;;;;;;13.91;100.00;98438.69;4188900;28;21099;-71
2022/09/15 01:44:26;;;;;;;16.53;8.27;;;;;;;13.92;100.00;98434.97;4190567;28;25875;-72
2022/09/15 01:46:57;;;;;;;15.20;7.40;;;;;;;13.90;100.00;98433.56;4203420;28;20229;-68
2022/09/15 01:49:25;;;;;;;15.63;8.17;;;;;;;13.92;100.00;98443.00;4189923;28;20492;-72
2022/09/15 01:51:53;;;;;;;16.20;8.50;;;;;;;13.96;100.00;98429.22;4196152;28;20643;-70
2022/09/15 01:54:27;;;;;;;17.00;8.43;;;;;;;13.94;100.00;98435.59;4194893;28;20244;-67
2022/09/15 01:56:54;;;;;;;21.27;9.23;;;;;;;13.92;100.00;98429.63;4199521;28;20312;-72
2022/09/15 01:59:21;;;;;;;18.40;8.37;;;;;;;14.00;100.00;98430.41;4191889;28;20814;-71
2022/09/15 02:01:52;;;;;;;19.17;8.67;;;;;;;13.97;100.00;98436.19;4195291;28;20261;-68
2022/09/15 02:04:26;;;;;;;26.00;9.47;;;;;;;13.93;100.00;98433.97;4208862;28;20241;-71
2022/09/15 02:07:10;;;;;;;14.27;8.50;;;;;;;13.87;100.00;98434.81;4197182;28;20254;-71
2022/09/15 02:10:00;;;;;;;20.07;8.93;;;;;;;13.81;100.00;98427.63;4194150;28;20234;-70
2022/09/15 02:12:55;;;;;;;21.30;9.60;;;;;;;13.82;100.00;98423.94;4194590;28;20259;-71
2022/09/15 02:15:50;;;;;;;18.30;8.63;;;;;;;13.86;100.00;98433.19;4188238;28;20241;-68
2022/09/15 02:18:23;;;;;;;17.83;9.50;;;;;;;13.79;100.00;98424.38;4199894;28;20240;-69
2022/09/15 02:20:52;;;;;;;17.60;9.37;;;;;;;13.82;100.00;98426.63;4194735;28;25900;-70
2022/09/15 02:23:25;;;;;;;19.83;8.43;;;;;;;13.84;100.00;98418.41;4202172;28;20594;-72
2022/09/15 02:26:05;;;;;;;21.10;10.23;;;;;;;13.85;100.00;98415.47;4186318;28;22543;-70
2022/09/15 02:28:34;;;;;;;16.17;8.57;;;;;;;13.93;100.00;98407.22;4198484;28;21652;-70
2022/09/15 02:31:02;;;;;;;18.17;9.60;;;;;;;13.94;100.00;98408.84;4190277;28;21588;-70
2022/09/15 02:33:33;;;;;;;21.37;10.33;;;;;;;13.90;100.00;98402.28;4189158;28;20248;-69
2022/09/15 02:36:01;;;;;;;18.63;9.77;;;;;;;13.92;100.00;98404.75;4197885;28;20235;-70
2022/09/15 02:38:33;;;;;;;16.87;9.20;;;;;;;13.89;100.00;98397.97;4197714;28;20325;-71
2022/09/15 02:41:00;;;;;;;16.47;9.83;;;;;;;13.88;100.00;98404.38;4180722;28;25319;-69
2022/09/15 02:43:26;;;;;;;18.27;9.67;;;;;;;13.80;100.00;98407.28;4184298;28;20320;-67
2022/09/15 02:45:53;;;;;;;20.87;9.83;;;;;;;13.76;100.00;98406.09;4192928;28;20245;-70
2022/09/15 02:48:20;;;;;;;17.73;10.90;;;;;;;13.66;100.00;98405.75;4179216;28;22878;-70
2022/09/15 02:50:47;;;;;;;16.53;9.30;;;;;;;13.66;100.00;98408.41;4186382;28;20225;-73
2022/09/15 02:53:13;;;;;;;19.73;9.97;;;;;;;13.67;100.00;98412.72;4171835;28;20238;-69
2022/09/15 02:55:40;;;;;;;17.83;9.73;;;;;;;13.62;100.00;98409.88;4187914;28;20241;-69
2022/09/15 02:58:07;;;;;;;17.63;10.07;;;;;;;13.57;100.00;98410.50;4176614;28;25324;-68
2022/09/15 03:00:33;;;;;;;19.27;10.47;;;;;;;13.57;100.00;98407.03;4188010;28;22021;-69
2022/09/15 03:03:00;;;;;;;21.30;9.90;;;;;;;13.51;100.00;98409.53;4182152;28;20237;-73
2022/09/15 03:05:28;;;;;;;22.10;10.47;;;;;;;13.45;100.00;98407.69;4178955;28;20860;-70
2022/09/15 03:07:55;;;;;;;21.83;10.03;;;;;;;13.43;100.00;98407.09;4188093;28;20292;-71
2022/09/15 03:10:23;;;;;;;16.10;9.33;;;;;;;13.41;100.00;98403.81;4177985;28;20236;-70
2022/09/15 03:12:51;;;;;;;21.90;10.13;;;;;;;13.41;100.00;98398.47;4182165;28;20237;-70
2022/09/15 03:15:20;;;;;;;17.87;9.90;;;;;;;13.40;100.00;98396.03;4184294;28;20240;-72
2022/09/15 03:17:47;;;;;;;17.73;9.83;;;;;;;13.28;100.00;98394.03;4189138;28;22269;-68
2022/09/15 03:20:17;;;;;;;21.00;10.23;;;;;;;13.36;100.00;98384.94;4185364;28;20233;-68
2022/09/15 03:22:43;;;;;;;19.40;11.03;;;;;;;13.35;100.00;98387.84;4169733;28;20328;-68
2022/09/15 03:25:10;;;;;;;21.23;10.80;;;;;;;13.28;100.00;98388.69;4184553;28;20411;-67
2022/09/15 03:27:37;;;;;;;20.30;10.57;;;;;;;13.32;100.00;98389.06;4205167;28;20229;-68
2022/09/15 03:30:05;;;;;;;15.97;9.27;;;;;;;13.38;100.00;98390.88;4185301;28;20240;-69
2022/09/15 03:32:31;;;;;;;22.97;10.87;;;;;;;13.31;100.00;98390.09;4194644;28;20242;-74
2022/09/15 03:34:58;;;;;;;24.90;12.20;;;;;;;13.24;100.00;98387.44;4193644;28;20343;-69
2022/09/15 03:37:25;;;;;;;19.50;10.47;;;;;;;13.30;100.00;98394.63;4190259;28;20702;-68
2022/09/15 03:39:51;;;;;;;20.93;11.33;;;;;;;13.24;100.00;98392.78;4185058;28;23611;-69
2022/09/15 03:42:18;;;;;;;17.20;11.27;;;;;;;13.16;100.00;98386.84;4202463;28;20233;-70
2022/09/15 03:44:45;;;;;;;22.53;12.00;;;;;;;13.14;100.00;98386.25;4202262;28;20285;-70
2022/09/15 03:47:11;;;;;;;24.97;11.93;;;;;;;13.18;100.00;98403.47;4189774;28;20231;-71
2022/09/15 03:49:38;;;;;;;21.27;11.43;;;;;;;13.20;100.00;98402.22;4197927;28;20230;-66
2022/09/15 03:52:04;;;;;;;23.57;12.30;;;;;;;13.21;100.00;98408.41;4203356;28;20599;-73
2022/09/15 03:54:31;;;;;;;25.60;12.37;;;;;;;13.20;100.00;98401.41;4199492;28;20344;-73
2022/09/15 03:56:58;;;;;;;28.70;12.23;;;;;;;13.16;100.00;98394.84;4196598;28;20244;-73
2022/09/15 03:59:24;;;;;;;24.13;12.87;;;;;;;13.20;100.00;98401.41;4210250;28;21693;-70
2022/09/15 04:01:50;;;;;;;22.60;11.40;;;;;;;13.18;100.00;98403.47;4204911;28;20506;-67
2022/09/15 04:04:17;;;;;;;21.57;13.17;;;;;;;13.22;100.00;98410.03;4197390;28;20245;-69
2022/09/15 04:06:44;;;;;;;23.63;13.10;;;;;;;13.23;100.00;98401.81;4202738;28;20292;-66
2022/09/15 04:09:10;;;;;;;25.10;13.80;;;;;;;13.22;100.00;98410.03;4205961;28;23578;-70
2022/09/15 04:11:38;;;;;;;24.70;13.27;;;;;;;13.19;100.00;98405.94;4196743;28;20315;-71
2022/09/15 04:14:04;;;;;;;20.70;13.83;;;;;;;13.17;100.00;98412.53;4194684;28;20424;-70
2022/09/15 04:16:31;;;;;;;26.50;14.00;;;;;;;13.23;100.00;98404.50;4206904;28;22590;-70
2022/09/15 04:18:58;;;;;;;29.87;15.23;;;;;;;13.18;100.00;98403.47;4198251;28;20303;-68
2022/09/15 04:21:25;;;;;;;22.63;14.33;;;;;;;13.21;100.00;98403.06;4202391;28;20801;-65
2022/09/15 04:23:52;;;;;;;26.93;15.20;;;;;;;13.17;100.00;98397.31;4195965;28;20559;-67
2022/09/15 04:26:28;;;;;;;30.40;14.83;;;;;;;13.09;100.00;98397.56;4207864;28;20342;-66
2022/09/15 04:28:56;;;;;;;30.93;15.13;;;;;;;13.14;100.00;98391.59;4205567;28;21699;-73
2022/09/15 04:31:28;;;;;;;30.07;15.07;;;;;;;13.08;100.00;98383.38;4250286;28;20244;-75
2022/09/15 04:33:56;;;;;;;23.87;13.33;;;;;;;13.20;100.00;98385.38;4211635;28;20610;-76
2022/09/15 04:36:24;;;;;;;29.40;15.03;;;;;;;13.12;100.00;98377.63;4233721;28;21681;-76
2022/09/15 04:38:51;;;;;;;32.33;13.93;;;;;;;13.09;100.00;98374.34;4221027;28;20440;-74
2022/09/15 04:41:18;;;;;;;23.97;14.17;;;;;;;13.15;100.00;98382.53;4217977;28;21433;-75
2022/09/15 04:43:45;;;;;;;33.00;14.97;;;;;;;13.09;100.00;98378.88;4205017;28;20237;-77
2022/09/15 04:46:13;;;;;;;27.07;14.03;;;;;;;13.10;100.00;98378.66;4202247;28;20228;-76
2022/09/15 04:48:40;;;;;;;27.30;13.83;;;;;;;13.09;100.00;98378.88;4209963;28;22156;-76
2022/09/15 04:51:10;;;;;;;29.03;13.30;;;;;;;13.05;100.00;98373.13;4207957;28;23216;-74
2022/09/15 04:53:37;;;;;;;43.17;18.30;;;;;;;13.08;100.00;98380.72;4203335;28;20724;-83
2022/09/15 04:56:05;;;;;;;30.47;15.97;;;;;;;13.13;100.00;98379.25;4216631;28;20241;-76
2022/09/15 04:58:42;;;;;;;23.60;13.87;;;;;;;13.14;100.00;98380.91;4224585;28;20912;-75
2022/09/15 05:01:12;;;;;;;27.50;13.57;;;;;;;13.16;100.00;98395.69;4234194;28;22139;-75
2022/09/15 05:03:39;;;;;;;29.70;13.63;;;;;;;13.15;100.00;98387.88;4219930;28;21194;-76
2022/09/15 05:06:07;;;;;;;24.50;13.13;;;;;;;13.09;100.00;98385.03;4219147;28;21131;-76
2022/09/15 05:08:34;;;;;;;29.67;14.33;;;;;;;13.10;100.00;98392.00;4220377;28;21024;-73
2022/09/15 05:11:03;;;;;;;30.17;14.30;;;;;;;13.12;100.00;98393.66;4200624;28;20300;-74
2022/09/15 05:13:29;;;;;;;24.30;13.10;;;;;;;13.19;100.00;98394.44;4211890;28;23181;-73
2022/09/15 05:16:03;;;;;;;25.27;13.10;;;;;;;13.18;100.00;98393.63;4195374;28;20375;-76
2022/09/15 05:18:32;;;;;;;29.47;13.63;;;;;;;13.26;100.00;98389.91;4195822;28;22940;-76
2022/09/15 05:20:59;;;;;;;35.30;15.00;;;;;;;13.15;100.00;98388.69;4202602;28;22081;-71
2022/09/15 05:23:26;;;;;;;28.17;14.73;;;;;;;13.16;100.00;98395.69;4200056;28;20229;-73
2022/09/15 05:25:57;;;;;;;27.90;12.63;;;;;;;13.13;100.00;98392.63;4189147;28;20249;-74
2022/09/15 05:28:24;;;;;;;25.97;12.60;;;;;;;13.18;100.00;98392.78;4196943;28;20228;-73
2022/09/15 05:30:51;;;;;;;28.47;13.77;;;;;;;13.30;100.00;98397.31;4208552;28;20812;-75
2022/09/15 05:33:19;;;;;;;29.63;13.67;;;;;;;13.29;100.00;98394.84;4192839;28;20241;-73
2022/09/15 05:35:50;;;;;;;22.13;12.87;;;;;;;13.44;100.00;98398.06;4200012;28;20228;-73
2022/09/15 05:38:17;;;;;;;25.00;12.93;;;;;;;13.38;100.00;98396.22;4189826;28;23442;-68
2022/09/15 05:40:43;;;;;;;33.47;11.97;;;;;;;13.45;100.00;98389.00;4199153;28;20252;-68
2022/09/15 05:43:10;;;;;;;21.83;12.00;;;;;;;13.52;100.00;98394.31;4202818;28;20242;-69
2022/09/15 05:45:36;;;;;;;28.23;12.67;;;;;;;13.55;100.00;98395.72;4208506;28;24073;-78
2022/09/15 05:48:03;;;;;;;25.83;10.77;;;;;;;13.59;100.00;98405.78;4206926;28;20243;-73
2022/09/15 05:50:30;;;;;;;22.93;9.93;;;;;;;13.60;100.00;98401.25;4196789;28;20602;-72
2022/09/15 05:52:57;;;;;;;24.40;10.97;;;;;;;13.60;100.00;98404.75;4199567;28;21321;-73
2022/09/15 05:55:23;;;;;;;23.37;9.60;;;;;;;13.69;100.00;98402.63;4196635;28;20263;-72
2022/09/15 05:57:50;;;;;;;20.17;9.10;;;;;;;13.61;100.00;98402.91;4194973;28;20248;-71
2022/09/15 06:00:17;;;;;;;17.33;9.60;;;;;;;13.71;100.00;98405.91;4204568;28;20637;-74
2022/09/15 06:02:44;;;;;;;21.73;8.40;;;;;;;13.66;100.00;98405.75;4205332;28;22225;-74
2022/09/15 06:05:11;;;;;;;22.97;8.67;;;;;;;13.61;100.00;98409.06;4200448;28;20230;-73
2022/09/15 06:07:37;;;;;;;23.40;9.13;;;;;;;13.73;100.00;98411.88;4202922;28;20249;-72
2022/09/15 06:10:04;;;;;;;18.97;8.00;;;;;;;13.79;100.00;98405.66;4199583;28;20266;-71
2022/09/15 06:12:31;;;;;;;21.67;7.50;;;;;;;13.77;100.00;98410.41;4186100;28;20634;-72
2022/09/15 06:14:58;;;;;;;22.23;7.60;;;;;;;13.82;100.00;98410.56;4199989;28;20380;-72
2022/09/15 06:17:25;;;;;;;19.57;6.90;;;;;;;14.03;99.84;98421.97;4201991;28;20988;-77
2022/09/15 06:19:51;;;;;;;16.93;6.43;;;;;;;14.15;98.15;98422.91;4211659;28;20233;-72
2022/09/15 06:22:18;;;;;;;15.57;6.57;;;;;;;14.13;96.55;98417.75;4205630;28;21290;-74
2022/09/15 06:24:45;;;;;;;17.63;6.40;;;;;;;14.28;96.56;98419.28;4197131;28;20238;-72
2022/09/15 06:27:11;;;;;;;17.60;6.27;;;;;;;14.28;96.61;98417.44;4209556;28;20398;-73
2022/09/15 06:29:38;;;;;;;18.37;5.67;;;;;;;14.34;94.70;98427.25;4187486;28;20269;-70
2022/09/15 06:32:04;;;;;;;21.63;6.70;;;;;;;14.36;95.68;98425.19;4202100;28;20228;-72
2022/09/15 06:34:31;;;;;;;17.30;5.67;;;;;;;14.47;94.36;98420.13;4199945;28;20247;-74
2022/09/15 06:36:58;;;;;;;16.97;5.30;;;;;;;14.57;93.23;98428.53;4201386;28;21974;-73
2022/09/15 06:39:25;;;;;;;16.87;5.50;;;;;;;14.48;94.44;98421.78;4197412;28;20404;-73
2022/09/15 06:41:52;;;;;;;15.57;5.40;;;;;;;14.57;92.97;98423.19;4220313;28;20316;-74
2022/09/15 06:44:29;;;;;;;14.90;4.63;;;;;;;14.86;90.67;98431.53;4208944;28;20231;-73
2022/09/15 06:46:57;;;;;;;16.83;5.27;;;;;;;14.81;90.44;98426.84;4204905;28;25451;-72
2022/09/15 06:49:24;;;;;;;15.03;4.67;;;;;;;14.98;88.76;98435.97;4203004;28;20312;-73
2022/09/15 06:51:50;;;;;;;14.97;4.03;;;;;;;14.93;87.68;98437.66;4212140;28;20580;-72
2022/09/15 06:54:17;;;;;;;10.93;4.40;;;;;;;15.15;87.49;98433.50;4194735;28;23170;-71
2022/09/15 06:56:43;;;;;;;16.07;4.93;;;;;;;15.18;86.50;98441.09;4213686;28;26475;-75
2022/09/15 06:59:11;;;;;;;13.27;4.80;;;;;;;15.17;86.49;98443.97;4213487;28;22214;-75
2022/09/15 07:01:38;;;;;;;11.73;4.90;;;;;;;15.17;86.46;98444.81;4250621;28;22837;-71
2022/09/15 07:04:07;;;;;;;15.67;4.20;;;;;;;15.30;85.58;98441.16;4227493;28;21241;-76
2022/09/15 07:06:34;;;;;;;13.30;4.03;;;;;;;15.65;84.46;98451.22;4220376;28;20315;-74
2022/09/15 07:09:01;;;;;;;11.90;4.10;;;;;;;15.91;82.71;98447.38;4229812;28;20345;-73
2022/09/15 07:11:28;;;;;;;12.27;4.07;;;;;;;16.87;78.33;98453.50;4240727;28;20236;-72
2022/09/15 07:13:55;;;;;;;14.27;4.03;;;;;;;17.81;71.96;98452.47;4210016;28;21100;-71
2022/09/15 07:16:24;;;;;;;14.43;3.67;;;;;;;18.16;68.41;98464.13;4248645;28;20227;-72
2022/09/15 07:18:53;;;;;;;10.03;3.30;;;;;;;18.38;66.78;98470.44;4240847;28;22448;-73
2022/09/15 07:21:20;;;;;;;10.70;3.43;;;;;;;18.94;65.42;98479.44;4216483;28;20690;-73
2022/09/15 07:23:48;;;;;;;13.07;3.40;;;;;;;18.92;62.95;98480.75;4250672;28;20245;-74
2022/09/15 07:26:17;;;;;;;11.33;3.10;;;;;;;17.61;67.33;98477.09;4192976;28;20233;-73
2022/09/15 07:28:48;;;;;;;7.97;2.97;;;;;;;17.93;66.62;98476.63;4239729;28;20394;-73
2022/09/15 07:31:17;;;;;;;14.17;3.63;;;;;;;17.82;66.90;98472.94;4237005;28;20695;-73
2022/09/15 07:33:47;;;;;;;9.47;3.13;;;;;;;19.18;62.00;98476.50;4205452;28;20240;-71
2022/09/15 07:36:14;;;;;;;9.93;3.23;;;;;;;19.67;59.47;98494.66;4271799;28;20673;-73
2022/09/15 07:38:45;;;;;;;11.57;3.07;;;;;;;18.83;61.15;98495.69;4246538;28;22512;-74
2022/09/15 07:41:14;;;;;;;13.90;3.10;;;;;;;18.08;64.94;98490.38;4208591;28;20241;-73
2022/09/15 07:43:48;;;;;;;12.70;3.33;;;;;;;19.28;61.22;98498.22;4213174;28;20233;-72
2022/09/15 07:46:16;;;;;;;5.93;2.63;;;;;;;22.26;50.34;98514.88;4237235;28;20224;-71
2022/09/15 07:48:47;;;;;;;9.90;2.70;;;;;;;24.35;43.42;98534.50;4228076;28;20337;-72
2022/09/15 07:51:15;;;;;;;7.27;2.50;;;;;;;26.06;37.65;98542.41;4211544;28;20307;-70
2022/09/15 07:53:43;;;;;;;8.43;2.83;;;;;;;26.09;36.67;98550.00;4236141;28;20244;-73
2022/09/15 07:56:10;;;;;;;10.20;2.53;;;;;;;27.18;34.08;98552.69;4217613;28;20370;-70
2022/09/15 07:58:36;;;;;;;8.93;2.23;;;;;;;27.23;33.90;98555.38;4186094;28;20327;-68
2022/09/15 08:01:05;;;;;;;11.33;2.63;;;;;;;25.42;36.45;98543.72;4225133;28;20923;-41
2022/09/15 08:03:32;;;;;;;8.40;2.27;;;;;;;24.69;36.50;98539.19;4253735;28;20237;-68
2022/09/15 08:06:00;;;;;;;8.70;2.37;;;;;;;22.66;41.78;98529.56;4216451;28;22364;-70
2022/09/15 08:08:27;;;;;;;5.30;2.13;;;;;;;23.54;39.40;98531.09;4216866;28;21491;-71
2022/09/15 08:10:54;;;;;;;7.07;1.97;;;;;;;25.51;35.80;98547.41;4221392;28;20616;-70
2022/09/15 08:13:21;;;;;;;8.03;2.03;;;;;;;27.27;32.45;98548.19;4210557;28;20408;-69
2022/09/15 08:15:48;;;;;;;9.00;2.53;;;;;;;27.55;31.71;98549.00;4210975;28;20967;-69
2022/09/15 08:18:15;;;;;;;10.17;1.90;;;;;;;27.73;30.72;98547.28;4216901;28;25028;-68
2022/09/15 08:20:42;;;;;;;7.77;1.73;;;;;;;26.60;32.29;98550.38;4214424;28;20307;-70
2022/09/15 08:23:10;;;;;;;8.70;1.80;;;;;;;25.55;34.88;98545.75;4202780;28;22084;-68
2022/09/15 08:25:39;;;;;;;10.77;1.77;;;;;;;22.79;39.99;98514.66;4207396;28;20232;-71
2022/09/15 08:28:05;;;;;;;6.63;1.63;;;;;;;22.38;41.26;98509.22;4217256;28;21117;-69
2022/09/15 08:30:32;;;;;;;8.27;2.10;;;;;;;21.48;44.25;98508.38;4234655;28;20261;-42
2022/09/15 08:32:59;;;;;;;8.43;1.73;;;;;;;20.99;45.46;98516.72;4234635;28;20226;-48
2022/09/15 08:35:25;;;;;;;11.93;2.40;;;;;;;21.11;47.12;98516.53;4249355;28;20253;-42
2022/09/15 08:37:54;;;;;;;8.43;1.80;;;;;;;21.33;46.85;98515.56;4233377;28;21104;-40
2022/09/15 08:40:31;;;;;;;10.00;2.10;;;;;;;20.79;46.37;98511.16;4229982;28;21697;-42
2022/09/15 08:43:02;;;;;;;6.40;1.80;;;;;;;20.35;49.12;98505.94;4219150;28;20244;-42
2022/09/15 08:45:39;;;;;;;5.03;1.93;;;;;;;20.49;48.28;98500.94;4250955;28;20317;-41
2022/09/15 08:48:07;;;;;;;6.53;1.60;;;;;;;20.49;48.16;98499.03;4238418;28;20239;-40
2022/09/15 08:50:43;;;;;;;10.47;1.90;;;;;;;20.59;49.22;98506.44;4229335;28;20333;-41
2022/09/15 08:53:16;;;;;;;13.00;2.10;;;;;;;20.47;47.35;98501.19;4210238;28;21193;-42
2022/09/15 08:55:47;;;;;;;6.63;1.80;;;;;;;20.11;48.41;98502.72;4203098;28;20247;-42
2022/09/15 08:58:16;;;;;;;7.03;1.70;;;;;;;20.26;48.71;98502.88;4212663;28;20594;-40
2022/09/15 09:00:44;;;;;;;3.90;1.50;;;;;;;20.21;46.68;98500.94;4240520;28;20936;-40
2022/09/15 09:03:32;;;;;;;7.00;1.63;;;;;;;19.90;48.51;98499.81;4212340;28;20398;-42
2022/09/15 09:06:09;;;;;;;9.23;2.00;;;;;;;19.45;49.39;98508.13;4241254;28;22287;-48
2022/09/15 09:09:14;;;;;;;10.97;2.00;;;;;;;19.14;50.23;98507.72;4255332;28;20237;-49
2022/09/15 09:11:47;;;;;;;9.63;1.70;;;;;;;18.93;51.32;98507.44;4232291;28;22603;-48
2022/09/15 09:14:47;;;;;;;5.03;1.40;;;;;;;18.95;52.04;98491.81;4199862;28;20254;-46
2022/09/15 09:18:07;;;;;;;7.07;1.50;;;;;;;19.14;50.66;98499.63;4221397;28;20239;-71
2022/09/15 09:20:52;;;;;;;5.70;1.60;;;;;;;19.52;50.38;98498.78;4168083;29;20242;-70
2022/09/15 09:23:22;;;;;;;6.33;1.17;;;;;;;19.31;49.94;98507.69;4240889;28;20435;-68
2022/09/15 09:25:51;;;;;;;8.70;1.60;;;;;;;19.12;51.62;98504.47;4214392;28;20247;-41
2022/09/15 09:28:29;;;;;;;6.13;1.70;;;;;;;19.07;54.05;98499.00;4197895;28;22180;-72
2022/09/15 09:31:06;;;;;;;7.07;1.67;;;;;;;19.21;52.76;98507.56;4185823;28;20460;-53
2022/09/15 09:33:41;;;;;;;8.63;1.60;;;;;;;19.01;52.75;98502.69;4204633;28;20689;-71
2022/09/15 09:36:13;;;;;;;7.60;1.43;;;;;;;19.00;53.30;98501.06;4197505;28;20765;-74
2022/09/15 09:38:42;;;;;;;7.40;1.77;;;;;;;19.11;53.97;98502.84;4208974;28;21196;-73
2022/09/15 09:41:24;;;;;;;5.53;1.70;;;;;;;18.90;52.19;98501.72;4196462;28;20244;-73
2022/09/15 09:43:54;;;;;;;9.43;1.37;;;;;;;19.01;52.51;98489.19;4180950;28;20735;-76
2022/09/15 09:46:21;;;;;;;5.73;1.77;;;;;;;19.38;51.60;98492.94;4202618;28;20413;-73
2022/09/15 09:48:53;;;;;;;7.10;1.73;;;;;;;19.37;52.63;98483.22;4203257;28;20234;-72
2022/09/15 09:51:36;;;;;;;7.03;2.00;;;;;;;19.70;51.60;98483.38;4197364;28;21523;-73
2022/09/15 09:54:10;;;;;;;9.13;1.50;;;;;;;19.52;50.89;98497.97;4195653;28;20634;-75
2022/09/15 09:56:37;;;;;;;8.03;1.50;;;;;;;19.05;51.26;98501.13;4212069;28;20366;-74
2022/09/15 09:59:04;;;;;;;7.77;1.60;;;;;;;19.46;53.67;98491.72;4214774;28;20949;-73
2022/09/15 10:01:31;;;;;;;7.50;1.70;;;;;;;19.33;51.67;98484.78;4208534;28;20237;-75
2022/09/15 10:04:18;;;;;;;9.33;1.77;;;;;;;19.39;51.48;98483.81;4211128;28;20232;-76
2022/09/15 10:06:45;;;;;;;8.53;1.60;;;;;;;19.16;52.49;98486.72;4219287;28;20228;-72
2022/09/15 10:09:16;;;;;;;5.97;1.43;;;;;;;18.76;52.82;98485.03;4219353;28;21697;-71
2022/09/15 10:11:49;;;;;;;7.10;1.73;;;;;;;18.79;53.71;98484.56;4220269;28;21743;-73
2022/09/15 10:14:21;;;;;;;7.43;1.50;;;;;;;19.00;52.34;98482.19;4216554;28;21417;-74
2022/09/15 10:17:06;;;;;;;3.83;1.30;;;;;;;19.10;51.59;98474.22;4219712;28;20300;-73
2022/09/15 10:19:54;;;;;;;5.77;1.47;;;;;;;19.13;52.07;98474.56;4198164;28;20380;-71
2022/09/15 10:22:31;;;;;;;5.07;1.40;;;;;;;18.85;53.21;98480.09;4200497;28;20374;-70
2022/09/15 10:24:59;;;;;;;7.73;1.73;;;;;;;18.74;54.25;98484.47;4224837;28;21718;-72
2022/09/15 10:27:31;;;;;;;5.53;1.60;;;;;;;18.79;52.88;98481.06;4200676;28;21119;-71
2022/09/15 10:30:11;;;;;;;6.67;1.70;;;;;;;18.98;52.97;98485.94;4205431;28;20237;-69
2022/09/15 10:32:38;;;;;;;9.40;1.87;;;;;;;19.33;52.96;98482.09;4202559;28;21177;-71
2022/09/15 10:35:17;;;;;;;6.17;1.77;;;;;;;19.06;52.74;98482.03;4198447;28;20432;-69
2022/09/15 10:37:58;;;;;;;6.53;1.93;;;;;;;18.81;53.06;98478.94;4197353;28;20300;-69
2022/09/15 10:40:32;;;;;;;4.67;1.70;;;;;;;18.76;55.63;98485.88;4209511;28;20378;-75
2022/09/15 10:43:01;;;;;;;5.10;1.67;;;;;;;18.56;53.27;98480.94;4213042;28;20569;-70
2022/09/15 10:45:38;;;;;;;8.23;1.97;;;;;;;18.51;53.30;98480.88;4208481;28;23328;-72
2022/09/15 10:48:15;;;;;;;12.80;2.07;;;;;;;18.52;53.17;98471.75;4195147;28;20231;-73
2022/09/15 10:51:01;;;;;;;5.10;1.57;;;;;;;18.53;53.46;98473.38;4189543;28;21746;-69
2022/09/15 10:53:47;;;;;;;11.00;2.00;;;;;;;18.39;53.60;98479.34;4191072;28;22912;-71
2022/09/15 10:56:17;;;;;;;6.10;1.93;;;;;;;18.11;55.99;98473.75;4205684;28;21290;-71
2022/09/15 10:58:55;;;;;;;8.70;2.00;;;;;;;18.30;55.63;98482.41;4187845;28;20303;-71
2022/09/15 11:01:28;;;;;;;9.67;2.23;;;;;;;18.10;55.97;98480.19;4202192;28;20224;-72
2022/09/15 11:04:10;;;;;;;5.97;2.00;;;;;;;17.86;55.68;98486.72;4211009;28;20228;-72
2022/09/15 11:06:47;;;;;;;8.10;1.97;;;;;;;17.86;55.91;98476.81;4217905;28;20505;-73
2022/09/15 11:09:22;;;;;;;3.87;1.60;;;;;;;17.72;57.06;98478.09;4199559;28;20674;-71
2022/09/15 11:11:54;;;;;;;9.77;2.00;;;;;;;17.67;57.64;98478.00;4208782;28;20238;-72
2022/09/15 11:14:39;;;;;;;7.10;2.10;;;;;;;17.76;58.90;98483.81;4198172;28;20369;-71
2022/09/15 11:17:27;;;;;;;8.80;1.93;;;;;;;17.93;58.29;98476.63;4228737;28;21488;-72
2022/09/15 11:20:06;;;;;;;5.73;1.60;;;;;;;18.20;58.22;98484.13;4214615;28;20368;-74
2022/09/15 11:22:37;;;;;;;12.93;1.97;;;;;;;18.39;57.24;98477.44;4197594;28;20343;-72
2022/09/15 11:25:12;;;;;;;7.63;2.00;;;;;;;18.64;57.77;98481.63;4205735;28;20874;-72
2022/09/15 11:27:42;;;;;;;8.37;1.80;;;;;;;18.85;57.46;98483.59;4225869;28;20344;-73
2022/09/15 11:30:16;;;;;;;8.23;1.83;;;;;;;18.94;55.69;98482.13;4193851;28;20244;-72
2022/09/15 11:33:04;;;;;;;4.80;1.60;;;;;;;18.71;55.35;98480.41;4184506;28;21469;-70
2022/09/15 11:35:53;;;;;;;5.40;1.57;;;;;;;18.38;56.10;98478.53;4203891;28;25610;-71
2022/09/15 11:38:47;;;;;;;4.80;1.40;;;;;;;18.40;56.77;98475.56;4206398;28;20296;-72
2022/09/15 11:41:17;;;;;;;8.77;1.90;;;;;;;18.37;55.91;98486.84;4200412;28;20930;-71